SKCG/CTG METAR and TAF weather

Enter ICAO airport designator
Station Type Date Time Source
SKCG METAR 2020/03/28 09:00 UTC NOAA

SKCG 280900Z 04006KT 010V070 CAVOK 26/23 A2972


Station Type Date Time Source
SKCG Decoded METAR 2020/03/28 09:00 UTC NOAA

Cartagena / Rafael Nunez, Colombia (SKCG) 10-27N 075-31W 12M
Mar 28, 2020 - 05:00 AM EDT / 2020.03.28 0900 UTC
Wind: from the NE (040 degrees) at 7 MPH (6 KT) (direction variable):0
Visibility: greater than 7 mile(s):0
Temperature: 78 F (26 C)
Dew Point: 73 F (23 C)
Relative Humidity: 83%
Pressure (altimeter): 29.72 in. Hg (1006 hPa)
ob: SKCG 280900Z 04006KT 010V070 CAVOK 26/23 A2972
cycle: 9

Station Type Date Time Source
SKCG TAF 2020/03/28 06:51 UTC NOAA

TAF SKCG 280430Z 2806/2906 05005KT CAVOK
TEMPO 2810/2812 6000 VCFG SCT012
BECMG 2815/2817 35016KT
TEMPO 2820/2822 7000 SCT015CB TX33/2819Z TN24/2810Z

Example: see airport list